Mulungu, Brazil
Current Conditions -  °F | °C
As of 12:00 PM on Thursday 23 Oct 2014 (Local Time) from SBKG Reporting Station
Broken Clouds Broken Clouds  
Wind Chill: 86°   Ceiling: 8000
Heat Index: 87°   Visibility: 6mi
Dew Point: 63°   Wind: 12mph
Humidity: 45%   Direction: 100°E
Pressure: 30"   Gusts: NA
Location:  7.02°S, 35.46°W
Report Text: SBKG 231500Z 10010KT 9999 SCT039 BKN080 30/17 Q1016
Loading
Personal Weather Stations






























Interactive Weather Map
Tropical Storm Tracking
New forecast layout! Learn more

10-Day Weather Forecast

Advertisements
Track Severe Weather on mobile